Station Historical Data
Daily Summary for July 31, 2012 Units:  Both    English   Metric
« Previous Day
Next Day »
Daily Weekly Monthly Yearly Custom
  High: Low: Average:
Temperature: 91.6 °F /  33.1 °C 72.0 °F /  22.2 °C 82.3 °F /  27.9 °C
Dew Point: 78.6 °F /  25.9 °C 69.9 °F /  21.1 °C 74.3 °F /  23.5 °C
Humidity: 93% 55% 78%
Wind Speed: 8.0mph /  12.9km/h - 2.2mph /  3.5km/h
Wind Gust: 13.0mph /  20.9km/h - -
Wind- - WSW
Pressure: 29.88 in /  1011.7 hPa 29.80 in /  1009 hPa -
Precipitation: 0.22 in /  5.59 mm    
Historical Graphs
 
 
Tabular Data for July 31, 2012
Time Temperature Dew Point Pressure Wind Wind Speed Wind Gust Humidity Rainfall Rate (Hourly) Conditions
00:00 79.8 °F /  26.6 °C 75.9 °F /  24.4 °C 29.88in /  1011.7hPa ESE 3.0mph /  4.8km/h 3.0mph /  4.8km/h 88% 0.00in /  0mm
00:03 79.6 °F /  26.4 °C 75.7 °F /  24.3 °C 29.88in /  1011.7hPa ESE 2.0mph /  3.2km/h 3.0mph /  4.8km/h 88% 0.00in /  0mm
00:08 79.5 °F /  26.4 °C 75.6 °F /  24.2 °C 29.88in /  1011.7hPa ESE 3.0mph /  4.8km/h 3.0mph /  4.8km/h 88% 0.00in /  0mm
00:13 79.4 °F /  26.3 °C 75.5 °F /  24.2 °C 29.87in /  1011.4hPa ESE 4.0mph /  6.4km/h 4.0mph /  6.4km/h 88% 0.00in /  0mm
00:18 79.2 °F /  26.2 °C 75.7 °F /  24.3 °C 29.87in /  1011.4hPa ESE 4.0mph /  6.4km/h 5.0mph /  8km/h 89% 0.00in /  0mm
00:23 79.3 °F /  26.3 °C 75.8 °F /  24.3 °C 29.87in /  1011.4hPa ESE 3.0mph /  4.8km/h 5.0mph /  8km/h 89% 0.00in /  0mm
00:28 79.4 °F /  26.3 °C 75.5 °F /  24.2 °C 29.86in /  1011.1hPa SE 4.0mph /  6.4km/h 5.0mph /  8km/h 88% 0.00in /  0mm
00:33 79.5 °F /  26.4 °C 75.6 °F /  24.2 °C 29.87in /  1011.4hPa SE 3.0mph /  4.8km/h 5.0mph /  8km/h 88% 0.00in /  0mm
00:38 79.4 °F /  26.3 °C 75.5 °F /  24.2 °C 29.87in /  1011.4hPa Calm   2.0mph /  3.2km/h 88% 0.00in /  0mm
00:43 79.3 °F /  26.3 °C 75.4 °F /  24.1 °C 29.87in /  1011.4hPa Calm   1.0mph /  1.6km/h 88% 0.00in /  0mm
00:48 79.2 °F /  26.2 °C 75.7 °F /  24.3 °C 29.87in /  1011.4hPa Calm   1.0mph /  1.6km/h 89% 0.00in /  0mm
00:53 79.2 °F /  26.2 °C 75.7 °F /  24.3 °C 29.87in /  1011.4hPa SSE 2.0mph /  3.2km/h 2.0mph /  3.2km/h 89% 0.00in /  0mm
00:58 79.2 °F /  26.2 °C 75.7 °F /  24.3 °C 29.87in /  1011.4hPa ESE 1.0mph /  1.6km/h 1.0mph /  1.6km/h 89% 0.00in /  0mm
01:03 79.2 °F /  26.2 °C 75.7 °F /  24.3 °C 29.86in /  1011.1hPa ESE 4.0mph /  6.4km/h 4.0mph /  6.4km/h 89% 0.00in /  0mm
01:08 79.1 °F /  26.2 °C 75.6 °F /  24.2 °C 29.86in /  1011.1hPa ESE 2.0mph /  3.2km/h 3.0mph /  4.8km/h 89% 0.00in /  0mm
01:13 79.0 °F /  26.1 °C 75.5 °F /  24.2 °C 29.86in /  1011.1hPa Calm   1.0mph /  1.6km/h 89% 0.00in /  0mm
01:18 78.9 °F /  26.1 °C 75.4 °F /  24.1 °C 29.86in /  1011.1hPa SW 2.0mph /  3.2km/h 2.0mph /  3.2km/h 89% 0.00in /  0mm
01:23 78.9 °F /  26.1 °C 75.7 °F /  24.3 °C 29.86in /  1011.1hPa South 2.0mph /  3.2km/h 3.0mph /  4.8km/h 90% 0.00in /  0mm
01:28 79.0 °F /  26.1 °C 75.5 °F /  24.2 °C 29.86in /  1011.1hPa SSE 2.0mph /  3.2km/h 3.0mph /  4.8km/h 89% 0.00in /  0mm
01:33 79.1 °F /  26.2 °C 75.6 °F /  24.2 °C 29.85in /  1010.7hPa SSW 2.0mph /  3.2km/h 3.0mph /  4.8km/h 89% 0.00in /  0mm
01:38 79.2 °F /  26.2 °C 75.7 °F /  24.3 °C 29.85in /  1010.7hPa SSW 1.0mph /  1.6km/h 3.0mph /  4.8km/h 89% 0.00in /  0mm
01:43 79.2 °F /  26.2 °C 75.7 °F /  24.3 °C 29.84in /  1010.4hPa SW 1.0mph /  1.6km/h 3.0mph /  4.8km/h 89% 0.00in /  0mm
01:48 79.2 °F /  26.2 °C 75.7 °F /  24.3 °C 29.83in /  1010hPa SSE 2.0mph /  3.2km/h 4.0mph /  6.4km/h 89% 0.00in /  0mm
01:53 79.2 °F /  26.2 °C 75.7 °F /  24.3 °C 29.82in /  1009.7hPa SSE 1.0mph /  1.6km/h 2.0mph /  3.2km/h 89% 0.00in /  0mm
01:58 79.1 °F /  26.2 °C 75.6 °F /  24.2 °C 29.82in /  1009.7hPa South 2.0mph /  3.2km/h 2.0mph /  3.2km/h 89% 0.00in /  0mm
02:03 79.0 °F /  26.1 °C 75.5 °F /  24.2 °C 29.82in /  1009.7hPa SSW 2.0mph /  3.2km/h 2.0mph /  3.2km/h 89% 0.00in /  0mm
02:08 79.0 °F /  26.1 °C 75.5 °F /  24.2 °C 29.82in /  1009.7hPa SSW 1.0mph /  1.6km/h 2.0mph /  3.2km/h 89% 0.00in /  0mm
02:13 79.0 °F /  26.1 °C 75.5 °F /  24.2 °C 29.82in /  1009.7hPa SE 1.0mph /  1.6km/h 2.0mph /  3.2km/h 89% 0.00in /  0mm
02:18 79.0 °F /  26.1 °C 75.5 °F /  24.2 °C 29.83in /  1010hPa Calm     89% 0.00in /  0mm
02:23 78.9 °F /  26.1 °C 75.7 °F /  24.3 °C 29.83in /  1010hPa SE 1.0mph /  1.6km/h 1.0mph /  1.6km/h 90% 0.00in /  0mm
02:28 78.7 °F /  25.9 °C 75.5 °F /  24.2 °C 29.83in /  1010hPa NNE 1.0mph /  1.6km/h 2.0mph /  3.2km/h 90% 0.00in /  0mm
02:33 78.6 °F /  25.9 °C 75.4 °F /  24.1 °C 29.83in /  1010hPa Calm   1.0mph /  1.6km/h 90% 0.00in /  0mm
02:38 78.3 °F /  25.7 °C 75.1 °F /  23.9 °C 29.83in /  1010hPa West 1.0mph /  1.6km/h 1.0mph /  1.6km/h 90% 0.00in /  0mm
02:43 78.4 °F /  25.8 °C 75.6 °F /  24.2 °C 29.82in /  1009.7hPa Calm   4.0mph /  6.4km/h 91% 0.00in /  0mm
02:48 78.3 °F /  25.7 °C 75.5 °F /  24.2 °C 29.82in /  1009.7hPa WSW 3.0mph /  4.8km/h 5.0mph /  8km/h 91% 0.00in /  0mm
02:53 78.5 °F /  25.8 °C 75.7 °F /  24.3 °C 29.83in /  1010hPa WSW 2.0mph /  3.2km/h 4.0mph /  6.4km/h 91% 0.00in /  0mm
02:58 78.5 °F /  25.8 °C 75.7 °F /  24.3 °C 29.83in /  1010hPa WSW 3.0mph /  4.8km/h 3.0mph /  4.8km/h 91% 0.00in /  0mm
03:03 78.5 °F /  25.8 °C 75.7 °F /  24.3 °C 29.83in /  1010hPa West 1.0mph /  1.6km/h 2.0mph /  3.2km/h 91% 0.00in /  0mm
03:08 78.5 °F /  25.8 °C 75.7 °F /  24.3 °C 29.83in /  1010hPa Calm   3.0mph /  4.8km/h 91% 0.00in /  0mm
03:13 78.5 °F /  25.8 °C 75.7 °F /  24.3 °C 29.83in /  1010hPa WNW 2.0mph /  3.2km/h 3.0mph /  4.8km/h 91% 0.00in /  0mm
03:18 78.5 °F /  25.8 °C 75.7 °F /  24.3 °C 29.83in /  1010hPa WSW 2.0mph /  3.2km/h 3.0mph /  4.8km/h 91% 0.00in /  0mm
03:23 78.4 °F /  25.8 °C 75.6 °F /  24.2 °C 29.83in /  1010hPa West 3.0mph /  4.8km/h 6.0mph /  9.7km/h 91% 0.00in /  0mm
03:29 78.4 °F /  25.8 °C 75.6 °F /  24.2 °C 29.82in /  1009.7hPa WSW 3.0mph /  4.8km/h 4.0mph /  6.4km/h 91% 0.00in /  0mm
03:34 78.3 °F /  25.7 °C 75.5 °F /  24.2 °C 29.81in /  1009.4hPa West 4.0mph /  6.4km/h 4.0mph /  6.4km/h 91% 0.00in /  0mm
03:39 78.3 °F /  25.7 °C 75.5 °F /  24.2 °C 29.81in /  1009.4hPa Calm   3.0mph /  4.8km/h 91% 0.00in /  0mm
03:44 78.2 °F /  25.7 °C 75.4 °F /  24.1 °C 29.81in /  1009.4hPa WSW 3.0mph /  4.8km/h 4.0mph /  6.4km/h 91% 0.00in /  0mm
03:49 78.1 °F /  25.6 °C 75.3 °F /  24.1 °C 29.81in /  1009.4hPa West 1.0mph /  1.6km/h 4.0mph /  6.4km/h 91% 0.00in /  0mm
03:54 78.1 °F /  25.6 °C 75.3 °F /  24.1 °C 29.81in /  1009.4hPa SW 3.0mph /  4.8km/h 5.0mph /  8km/h 91% 0.00in /  0mm
03:59 78.1 °F /  25.6 °C 75.3 °F /  24.1 °C 29.81in /  1009.4hPa SW 3.0mph /  4.8km/h 5.0mph /  8km/h 91% 0.00in /  0mm
04:04 78.1 °F /  25.6 °C 75.3 °F /  24.1 °C 29.82in /  1009.7hPa SW 3.0mph /  4.8km/h 5.0mph /  8km/h 91% 0.00in /  0mm
04:09 78.1 °F /  25.6 °C 75.3 °F /  24.1 °C 29.82in /  1009.7hPa SW 2.0mph /  3.2km/h 5.0mph /  8km/h 91% 0.00in /  0mm
04:14 78.2 °F /  25.7 °C 75.0 °F /  23.9 °C 29.82in /  1009.7hPa WSW 4.0mph /  6.4km/h 5.0mph /  8km/h 90% 0.00in /  0mm
04:19 78.2 °F /  25.7 °C 75.0 °F /  23.9 °C 29.82in /  1009.7hPa SW 5.0mph /  8km/h 6.0mph /  9.7km/h 90% 0.00in /  0mm
04:24 78.2 °F /  25.7 °C 75.0 °F /  23.9 °C 29.82in /  1009.7hPa West 5.0mph /  8km/h 7.0mph /  11.3km/h 90% 0.00in /  0mm
04:29 78.1 °F /  25.6 °C 74.3 °F /  23.5 °C 29.81in /  1009.4hPa WSW 8.0mph /  12.9km/h 9.0mph /  14.5km/h 88% 0.00in /  0mm
04:34 78.1 °F /  25.6 °C 74.6 °F /  23.7 °C 29.82in /  1009.7hPa West 4.0mph /  6.4km/h 5.0mph /  8km/h 89% 0.00in /  0mm
04:39 77.8 °F /  25.4 °C 74.0 °F /  23.3 °C 29.81in /  1009.4hPa WSW 5.0mph /  8km/h 7.0mph /  11.3km/h 88% 0.00in /  0mm
04:44 77.7 °F /  25.4 °C 73.9 °F /  23.3 °C 29.82in /  1009.7hPa WSW 4.0mph /  6.4km/h 7.0mph /  11.3km/h 88% 0.00in /  0mm
04:49 77.5 °F /  25.3 °C 73.7 °F /  23.2 °C 29.82in /  1009.7hPa WSW 4.0mph /  6.4km/h 10.0mph /  16.1km/h 88% 0.00in /  0mm
04:54 77.2 °F /  25.1 °C 73.4 °F /  23 °C 29.83in /  1010hPa WSW 3.0mph /  4.8km/h 5.0mph /  8km/h 88% 0.00in /  0mm
04:59 77.0 °F /  25 °C 73.5 °F /  23.1 °C 29.83in /  1010hPa WSW 4.0mph /  6.4km/h 5.0mph /  8km/h 89% 0.00in /  0mm
05:04 76.7 °F /  24.8 °C 73.2 °F /  22.9 °C 29.82in /  1009.7hPa WSW 5.0mph /  8km/h 5.0mph /  8km/h 89% 0.00in /  0mm
05:09 76.3 °F /  24.6 °C 72.8 °F /  22.7 °C 29.82in /  1009.7hPa WNW 2.0mph /  3.2km/h 5.0mph /  8km/h 89% 0.00in /  0mm
05:14 75.9 °F /  24.4 °C 72.8 °F /  22.7 °C 29.83in /  1010hPa West 2.0mph /  3.2km/h 6.0mph /  9.7km/h 90% 0.00in /  0mm
05:19 75.7 °F /  24.3 °C 72.6 °F /  22.6 °C 29.83in /  1010hPa Calm   4.0mph /  6.4km/h 90% 0.00in /  0mm
05:24 75.4 °F /  24.1 °C 72.3 °F /  22.4 °C 29.82in /  1009.7hPa Calm   5.0mph /  8km/h 90% 0.00in /  0mm
05:29 75.2 °F /  24 °C 72.1 °F /  22.3 °C 29.81in /  1009.4hPa Calm   3.0mph /  4.8km/h 90% 0.00in /  0mm
05:34 75.0 °F /  23.9 °C 71.9 °F /  22.2 °C 29.81in /  1009.4hPa Calm     90% 0.00in /  0mm
05:39 74.8 °F /  23.8 °C 71.7 °F /  22.1 °C 29.80in /  1009hPa Calm     90% 0.00in /  0mm
05:44 74.8 °F /  23.8 °C 72.0 °F /  22.2 °C 29.82in /  1009.7hPa North 4.0mph /  6.4km/h 4.0mph /  6.4km/h 91% 0.00in /  0mm
05:49 74.7 °F /  23.7 °C 71.9 °F /  22.2 °C 29.83in /  1010hPa North 4.0mph /  6.4km/h 7.0mph /  11.3km/h 91% 0.00in /  0mm
05:54 74.8 °F /  23.8 °C 71.7 °F /  22.1 °C 29.84in /  1010.4hPa NW 8.0mph /  12.9km/h 9.0mph /  14.5km/h 90% 0.00in /  0mm
05:59 74.5 °F /  23.6 °C 71.4 °F /  21.9 °C 29.83in /  1010hPa NE 3.0mph /  4.8km/h 13.0mph /  20.9km/h 90% 2.31in /  58.67mm
06:04 73.6 °F /  23.1 °C 70.8 °F /  21.6 °C 29.81in /  1009.4hPa East 2.0mph /  3.2km/h 7.0mph /  11.3km/h 91% 0.36in /  9.14mm
06:09 73.0 °F /  22.8 °C 70.5 °F /  21.4 °C 29.82in /  1009.7hPa Calm   3.0mph /  4.8km/h 92% 0.09in /  2.29mm
06:14 72.6 °F /  22.6 °C 70.2 °F /  21.2 °C 29.81in /  1009.4hPa Calm   1.0mph /  1.6km/h 92% 0.42in /  10.67mm
06:19 72.4 °F /  22.4 °C 70.3 °F /  21.3 °C 29.81in /  1009.4hPa Calm   2.0mph /  3.2km/h 93% 0.09in /  2.29mm
06:24 72.2 °F /  22.3 °C 70.1 °F /  21.2 °C 29.81in /  1009.4hPa Calm   3.0mph /  4.8km/h 93% 0.05in /  1.27mm
06:29 72.0 °F /  22.2 °C 69.9 °F /  21.1 °C 29.81in /  1009.4hPa SSW 1.0mph /  1.6km/h 1.0mph /  1.6km/h 93% 0.04in /  1.02mm
06:34 72.0 °F /  22.2 °C 69.9 °F /  21.1 °C 29.81in /  1009.4hPa SSW 1.0mph /  1.6km/h 1.0mph /  1.6km/h 93% 0.00in /  0mm
06:39 72.0 °F /  22.2 °C 69.9 °F /  21.1 °C 29.82in /  1009.7hPa SW 2.0mph /  3.2km/h 2.0mph /  3.2km/h 93% 0.00in /  0mm
06:44 72.0 °F /  22.2 °C 69.9 °F /  21.1 °C 29.82in /  1009.7hPa SW 2.0mph /  3.2km/h 3.0mph /  4.8km/h 93% 0.00in /  0mm
06:49 72.0 °F /  22.2 °C 69.9 °F /  21.1 °C 29.82in /  1009.7hPa WSW 2.0mph /  3.2km/h 3.0mph /  4.8km/h 93% 0.00in /  0mm
06:54 72.1 °F /  22.3 °C 70.0 °F /  21.1 °C 29.82in /  1009.7hPa SW 3.0mph /  4.8km/h 5.0mph /  8km/h 93% 0.00in /  0mm
06:59 72.1 °F /  22.3 °C 70.0 °F /  21.1 °C 29.82in /  1009.7hPa WSW 2.0mph /  3.2km/h 4.0mph /  6.4km/h 93% 0.00in /  0mm
07:04 72.0 °F /  22.2 °C 69.9 °F /  21.1 °C 29.82in /  1009.7hPa West 1.0mph /  1.6km/h 3.0mph /  4.8km/h 93% 0.00in /  0mm
07:10 72.0 °F /  22.2 °C 69.9 °F /  21.1 °C 29.83in /  1010hPa NNW 3.0mph /  4.8km/h 3.0mph /  4.8km/h 93% 0.00in /  0mm
07:15 72.0 °F /  22.2 °C 69.9 °F /  21.1 °C 29.84in /  1010.4hPa West 1.0mph /  1.6km/h 2.0mph /  3.2km/h 93% 0.00in /  0mm
07:20 72.1 °F /  22.3 °C 70.0 °F /  21.1 °C 29.84in /  1010.4hPa SW 1.0mph /  1.6km/h 3.0mph /  4.8km/h 93% 0.00in /  0mm
07:25 72.1 °F /  22.3 °C 70.0 °F /  21.1 °C 29.84in /  1010.4hPa Calm   4.0mph /  6.4km/h 93% 0.00in /  0mm
07:30 72.2 °F /  22.3 °C 70.1 °F /  21.2 °C 29.84in /  1010.4hPa Calm   1.0mph /  1.6km/h 93% 0.00in /  0mm
07:35 72.2 °F /  22.3 °C 70.1 °F /  21.2 °C 29.84in /  1010.4hPa Calm     93% 0.00in /  0mm
07:40 72.2 °F /  22.3 °C 70.1 °F /  21.2 °C 29.84in /  1010.4hPa Calm   1.0mph /  1.6km/h 93% 0.00in /  0mm
07:45 72.3 °F /  22.4 °C 70.2 °F /  21.2 °C 29.84in /  1010.4hPa NE 1.0mph /  1.6km/h 1.0mph /  1.6km/h 93% 0.00in /  0mm
07:50 72.4 °F /  22.4 °C 70.3 °F /  21.3 °C 29.84in /  1010.4hPa NE 1.0mph /  1.6km/h 1.0mph /  1.6km/h 93% 0.00in /  0mm
07:55 72.5 °F /  22.5 °C 70.4 °F /  21.3 °C 29.85in /  1010.7hPa NE 1.0mph /  1.6km/h 2.0mph /  3.2km/h 93% 0.00in /  0mm
08:00 72.5 °F /  22.5 °C 70.4 °F /  21.3 °C 29.85in /  1010.7hPa ENE 1.0mph /  1.6km/h 1.0mph /  1.6km/h 93% 0.00in /  0mm
08:05 72.6 °F /  22.6 °C 70.5 °F /  21.4 °C 29.86in /  1011.1hPa Calm   1.0mph /  1.6km/h 93% 0.00in /  0mm
08:10 72.8 °F /  22.7 °C 70.7 °F /  21.5 °C 29.86in /  1011.1hPa Calm   1.0mph /  1.6km/h 93% 0.00in /  0mm
08:15 73.1 °F /  22.8 °C 71.0 °F /  21.7 °C 29.87in /  1011.4hPa Calm     93% 0.00in /  0mm
08:20 73.2 °F /  22.9 °C 71.1 °F /  21.7 °C 29.87in /  1011.4hPa NNW 1.0mph /  1.6km/h 1.0mph /  1.6km/h 93% 0.00in /  0mm
08:25 73.3 °F /  22.9 °C 71.2 °F /  21.8 °C 29.87in /  1011.4hPa NNW 2.0mph /  3.2km/h 2.0mph /  3.2km/h 93% 0.00in /  0mm
08:30 73.5 °F /  23.1 °C 71.4 °F /  21.9 °C 29.88in /  1011.7hPa WNW 2.0mph /  3.2km/h 4.0mph /  6.4km/h 93% 0.00in /  0mm
08:35 73.6 °F /  23.1 °C 71.5 °F /  21.9 °C 29.88in /  1011.7hPa WNW 2.0mph /  3.2km/h 3.0mph /  4.8km/h 93% 0.00in /  0mm
08:40 73.8 °F /  23.2 °C 71.3 °F /  21.8 °C 29.88in /  1011.7hPa WSW 3.0mph /  4.8km/h 4.0mph /  6.4km/h 92% 0.00in /  0mm
08:45 74.1 °F /  23.4 °C 71.6 °F /  22 °C 29.88in /  1011.7hPa West 1.0mph /  1.6km/h 2.0mph /  3.2km/h 92% 0.00in /  0mm
08:50 74.4 °F /  23.6 °C 71.9 °F /  22.2 °C 29.88in /  1011.7hPa West 1.0mph /  1.6km/h 3.0mph /  4.8km/h 92% 0.00in /  0mm
08:55 74.6 °F /  23.7 °C 72.1 °F /  22.3 °C 29.88in /  1011.7hPa West 2.0mph /  3.2km/h 3.0mph /  4.8km/h 92% 0.00in /  0mm
09:00 74.9 °F /  23.8 °C 72.4 °F /  22.4 °C 29.88in /  1011.7hPa West 2.0mph /  3.2km/h 2.0mph /  3.2km/h 92% 0.00in /  0mm
09:05 75.0 °F /  23.9 °C 72.5 °F /  22.5 °C 29.88in /  1011.7hPa NW 2.0mph /  3.2km/h 3.0mph /  4.8km/h 92% 0.00in /  0mm
09:10 75.3 °F /  24.1 °C 72.5 °F /  22.5 °C 29.88in /  1011.7hPa NW 2.0mph /  3.2km/h 4.0mph /  6.4km/h 91% 0.00in /  0mm
09:15 75.6 °F /  24.2 °C 72.8 °F /  22.7 °C 29.88in /  1011.7hPa WNW 3.0mph /  4.8km/h 3.0mph /  4.8km/h 91% 0.00in /  0mm
09:20 76.0 °F /  24.4 °C 73.2 °F /  22.9 °C 29.88in /  1011.7hPa WNW 1.0mph /  1.6km/h 3.0mph /  4.8km/h 91% 0.00in /  0mm
09:25 76.3 °F /  24.6 °C 73.2 °F /  22.9 °C 29.87in /  1011.4hPa WNW 2.0mph /  3.2km/h 3.0mph /  4.8km/h 90% 0.00in /  0mm
09:30 76.7 °F /  24.8 °C 73.2 °F /  22.9 °C 29.87in /  1011.4hPa West 3.0mph /  4.8km/h 3.0mph /  4.8km/h 89% 0.00in /  0mm
09:35 77.2 °F /  25.1 °C 73.7 °F /  23.2 °C 29.87in /  1011.4hPa West 3.0mph /  4.8km/h 3.0mph /  4.8km/h 89% 0.00in /  0mm
09:40 77.7 °F /  25.4 °C 73.2 °F /  22.9 °C 29.87in /  1011.4hPa West 2.0mph /  3.2km/h 4.0mph /  6.4km/h 86% 0.00in /  0mm
09:45 78.3 °F /  25.7 °C 74.5 °F /  23.6 °C 29.87in /  1011.4hPa NW 1.0mph /  1.6km/h 3.0mph /  4.8km/h 88% 0.00in /  0mm
09:50 78.6 °F /  25.9 °C 73.7 °F /  23.2 °C 29.87in /  1011.4hPa WNW 2.0mph /  3.2km/h 4.0mph /  6.4km/h 85% 0.00in /  0mm
09:55 78.9 °F /  26.1 °C 73.7 °F /  23.2 °C 29.87in /  1011.4hPa WNW 3.0mph /  4.8km/h 4.0mph /  6.4km/h 84% 0.00in /  0mm
10:00 79.0 °F /  26.1 °C 74.1 °F /  23.4 °C 29.87in /  1011.4hPa SW 2.0mph /  3.2km/h 3.0mph /  4.8km/h 85% 0.00in /  0mm
10:05 79.4 °F /  26.3 °C 74.5 °F /  23.6 °C 29.87in /  1011.4hPa WNW 4.0mph /  6.4km/h 4.0mph /  6.4km/h 85% 0.00in /  0mm
10:10 79.8 °F /  26.6 °C 74.5 °F /  23.6 °C 29.87in /  1011.4hPa WSW 2.0mph /  3.2km/h 3.0mph /  4.8km/h 84% 0.00in /  0mm
10:15 80.0 °F /  26.7 °C 74.4 °F /  23.6 °C 29.87in /  1011.4hPa NW 1.0mph /  1.6km/h 5.0mph /  8km/h 83% 0.00in /  0mm
10:20 80.4 °F /  26.9 °C 74.4 °F /  23.6 °C 29.87in /  1011.4hPa WSW 1.0mph /  1.6km/h 3.0mph /  4.8km/h 82% 0.00in /  0mm
10:25 80.5 °F /  26.9 °C 74.5 °F /  23.6 °C 29.87in /  1011.4hPa West 4.0mph /  6.4km/h 4.0mph /  6.4km/h 82% 0.00in /  0mm
10:30 80.7 °F /  27.1 °C 74.0 °F /  23.3 °C 29.87in /  1011.4hPa SW 2.0mph /  3.2km/h 7.0mph /  11.3km/h 80% 0.00in /  0mm
10:35 80.7 °F /  27.1 °C 73.6 °F /  23.1 °C 29.87in /  1011.4hPa West 5.0mph /  8km/h 8.0mph /  12.9km/h 79% 0.00in /  0mm
10:40 81.1 °F /  27.3 °C 74.3 °F /  23.5 °C 29.87in /  1011.4hPa WSW 5.0mph /  8km/h 6.0mph /  9.7km/h 80% 0.00in /  0mm
10:45 81.1 °F /  27.3 °C 74.3 °F /  23.5 °C 29.87in /  1011.4hPa SW 6.0mph /  9.7km/h 7.0mph /  11.3km/h 80% 0.00in /  0mm
10:50 81.2 °F /  27.3 °C 74.4 °F /  23.6 °C 29.87in /  1011.4hPa SW 7.0mph /  11.3km/h 9.0mph /  14.5km/h 80% 0.00in /  0mm
10:55 81.9 °F /  27.7 °C 75.9 °F /  24.4 °C 29.87in /  1011.4hPa WNW 4.0mph /  6.4km/h 5.0mph /  8km/h 82% 0.00in /  0mm
11:00 82.1 °F /  27.8 °C 75.7 °F /  24.3 °C 29.87in /  1011.4hPa WNW 2.0mph /  3.2km/h 5.0mph /  8km/h 81% 0.00in /  0mm
11:05 82.0 °F /  27.8 °C 74.5 °F /  23.6 °C 29.87in /  1011.4hPa WSW 5.0mph /  8km/h 6.0mph /  9.7km/h 78% 0.00in /  0mm
11:11 82.1 °F /  27.8 °C 75.3 °F /  24.1 °C 29.87in /  1011.4hPa WSW 5.0mph /  8km/h 8.0mph /  12.9km/h 80% 0.00in /  0mm
11:16 82.2 °F /  27.9 °C 74.7 °F /  23.7 °C 29.88in /  1011.7hPa West 3.0mph /  4.8km/h 7.0mph /  11.3km/h 78% 0.00in /  0mm
11:21 82.5 °F /  28.1 °C 74.9 °F /  23.8 °C 29.88in /  1011.7hPa WSW 4.0mph /  6.4km/h 8.0mph /  12.9km/h 78% 0.00in /  0mm
11:26 82.7 °F /  28.2 °C 75.2 °F /  24 °C 29.88in /  1011.7hPa West 2.0mph /  3.2km/h 6.0mph /  9.7km/h 78% 0.00in /  0mm
11:31 83.1 °F /  28.4 °C 74.4 °F /  23.6 °C 29.88in /  1011.7hPa WSW 5.0mph /  8km/h 6.0mph /  9.7km/h 75% 0.00in /  0mm
11:36 83.3 °F /  28.5 °C 74.9 °F /  23.8 °C 29.88in /  1011.7hPa SW 4.0mph /  6.4km/h 6.0mph /  9.7km/h 76% 0.00in /  0mm
11:41 83.5 °F /  28.6 °C 75.1 °F /  23.9 °C 29.88in /  1011.7hPa WSW 6.0mph /  9.7km/h 6.0mph /  9.7km/h 76% 0.00in /  0mm
11:46 83.7 °F /  28.7 °C 75.3 °F /  24.1 °C 29.88in /  1011.7hPa SW 5.0mph /  8km/h 7.0mph /  11.3km/h 76% 0.00in /  0mm
11:51 84.0 °F /  28.9 °C 75.2 °F /  24 °C 29.88in /  1011.7hPa West 4.0mph /  6.4km/h 7.0mph /  11.3km/h 75% 0.00in /  0mm
11:56 84.0 °F /  28.9 °C 75.2 °F /  24 °C 29.88in /  1011.7hPa WSW 3.0mph /  4.8km/h 5.0mph /  8km/h 75% 0.00in /  0mm
12:01 84.3 °F /  29.1 °C 75.9 °F /  24.4 °C 29.88in /  1011.7hPa West 5.0mph /  8km/h 5.0mph /  8km/h 76% 0.00in /  0mm
12:06 84.6 °F /  29.2 °C 75.4 °F /  24.1 °C 29.88in /  1011.7hPa WSW 4.0mph /  6.4km/h 6.0mph /  9.7km/h 74% 0.00in /  0mm
12:11 84.7 °F /  29.3 °C 75.5 °F /  24.2 °C 29.88in /  1011.7hPa West 3.0mph /  4.8km/h 6.0mph /  9.7km/h 74% 0.00in /  0mm
12:16 84.8 °F /  29.3 °C 75.6 °F /  24.2 °C 29.88in /  1011.7hPa WNW 6.0mph /  9.7km/h 8.0mph /  12.9km/h 74% 0.00in /  0mm
12:21 84.9 °F /  29.4 °C 76.1 °F /  24.5 °C 29.88in /  1011.7hPa WNW 5.0mph /  8km/h 7.0mph /  11.3km/h 75% 0.00in /  0mm
12:26 85.2 °F /  29.6 °C 75.6 °F /  24.2 °C 29.88in /  1011.7hPa South 6.0mph /  9.7km/h 8.0mph /  12.9km/h 73% 0.00in /  0mm
12:31 85.0 °F /  29.4 °C 76.2 °F /  24.6 °C 29.88in /  1011.7hPa West 1.0mph /  1.6km/h 7.0mph /  11.3km/h 75% 0.00in /  0mm
12:36 85.3 °F /  29.6 °C 76.1 °F /  24.5 °C 29.88in /  1011.7hPa NNW 6.0mph /  9.7km/h 7.0mph /  11.3km/h 74% 0.00in /  0mm
12:41 85.7 °F /  29.8 °C 76.5 °F /  24.7 °C 29.88in /  1011.7hPa NNW 3.0mph /  4.8km/h 9.0mph /  14.5km/h 74% 0.00in /  0mm
12:46 85.9 °F /  29.9 °C 75.0 °F /  23.9 °C 29.88in /  1011.7hPa NW 7.0mph /  11.3km/h 8.0mph /  12.9km/h 70% 0.00in /  0mm
12:52 86.0 °F /  30 °C 76.8 °F /  24.9 °C 29.87in /  1011.4hPa NW 2.0mph /  3.2km/h 6.0mph /  9.7km/h 74% 0.00in /  0mm
12:57 86.6 °F /  30.3 °C 76.1 °F /  24.5 °C 29.87in /  1011.4hPa WSW 6.0mph /  9.7km/h 7.0mph /  11.3km/h 71% 0.00in /  0mm
13:02 86.3 °F /  30.2 °C 77.0 °F /  25 °C 29.87in /  1011.4hPa WNW 1.0mph /  1.6km/h 5.0mph /  8km/h 74% 0.00in /  0mm
13:07 86.4 °F /  30.2 °C 75.9 °F /  24.4 °C 29.87in /  1011.4hPa SW 5.0mph /  8km/h 8.0mph /  12.9km/h 71% 0.00in /  0mm
13:12 86.3 °F /  30.2 °C 76.6 °F /  24.8 °C 29.87in /  1011.4hPa South 2.0mph /  3.2km/h 6.0mph /  9.7km/h 73% 0.00in /  0mm
13:17 86.9 °F /  30.5 °C 77.2 °F /  25.1 °C 29.87in /  1011.4hPa WNW 2.0mph /  3.2km/h 6.0mph /  9.7km/h 73% 0.00in /  0mm
13:22 87.3 °F /  30.7 °C 77.2 °F /  25.1 °C 29.87in /  1011.4hPa West 2.0mph /  3.2km/h 7.0mph /  11.3km/h 72% 0.00in /  0mm
13:27 87.7 °F /  30.9 °C 74.9 °F /  23.8 °C 29.87in /  1011.4hPa WNW 6.0mph /  9.7km/h 9.0mph /  14.5km/h 66% 0.00in /  0mm
13:32 87.5 °F /  30.8 °C 74.3 °F /  23.5 °C 29.87in /  1011.4hPa NW 6.0mph /  9.7km/h 8.0mph /  12.9km/h 65% 0.00in /  0mm
13:37 87.7 °F /  30.9 °C 76.7 °F /  24.8 °C 29.87in /  1011.4hPa West 3.0mph /  4.8km/h 5.0mph /  8km/h 70% 0.00in /  0mm
13:42 87.9 °F /  31.1 °C 74.7 °F /  23.7 °C 29.86in /  1011.1hPa NNW 3.0mph /  4.8km/h 3.0mph /  4.8km/h 65% 0.00in /  0mm
13:47 88.2 °F /  31.2 °C 75.9 °F /  24.4 °C 29.86in /  1011.1hPa West 4.0mph /  6.4km/h 7.0mph /  11.3km/h 67% 0.00in /  0mm
13:52 88.6 °F /  31.4 °C 74.9 °F /  23.8 °C 29.86in /  1011.1hPa North 4.0mph /  6.4km/h 5.0mph /  8km/h 64% 0.00in /  0mm
13:57 88.4 °F /  31.3 °C 74.7 °F /  23.7 °C 29.86in /  1011.1hPa WNW 4.0mph /  6.4km/h 6.0mph /  9.7km/h 64% 0.00in /  0mm
14:02 88.4 °F /  31.3 °C 74.7 °F /  23.7 °C 29.86in /  1011.1hPa WSW 1.0mph /  1.6km/h 4.0mph /  6.4km/h 64% 0.00in /  0mm
14:07 88.7 °F /  31.5 °C 74.0 °F /  23.3 °C 29.86in /  1011.1hPa West 5.0mph /  8km/h 6.0mph /  9.7km/h 62% 0.00in /  0mm
14:12 88.4 °F /  31.3 °C 74.2 °F /  23.4 °C 29.86in /  1011.1hPa NW 4.0mph /  6.4km/h 4.0mph /  6.4km/h 63% 0.00in /  0mm
14:17 88.5 °F /  31.4 °C 76.6 °F /  24.8 °C 29.86in /  1011.1hPa NW 2.0mph /  3.2km/h 8.0mph /  12.9km/h 68% 0.00in /  0mm
14:22 88.4 °F /  31.3 °C 74.2 °F /  23.4 °C 29.86in /  1011.1hPa NW 4.0mph /  6.4km/h 7.0mph /  11.3km/h 63% 0.00in /  0mm
14:27 88.9 °F /  31.6 °C 73.7 °F /  23.2 °C 29.85in /  1010.7hPa NW 3.0mph /  4.8km/h 5.0mph /  8km/h 61% 0.00in /  0mm
14:32 89.3 °F /  31.8 °C 75.5 °F /  24.2 °C 29.85in /  1010.7hPa NW 2.0mph /  3.2km/h 7.0mph /  11.3km/h 64% 0.00in /  0mm
14:37 89.6 °F /  32 °C 74.9 °F /  23.8 °C 29.85in /  1010.7hPa WNW 8.0mph /  12.9km/h 8.0mph /  12.9km/h 62% 0.00in /  0mm
14:43 89.6 °F /  32 °C 76.3 °F /  24.6 °C 29.85in /  1010.7hPa WNW 2.0mph /  3.2km/h 6.0mph /  9.7km/h 65% 0.00in /  0mm
14:48 89.6 °F /  32 °C 73.9 °F /  23.3 °C 29.85in /  1010.7hPa NNE 2.0mph /  3.2km/h 7.0mph /  11.3km/h 60% 0.00in /  0mm
14:53 89.9 °F /  32.2 °C 74.2 °F /  23.4 °C 29.85in /  1010.7hPa Calm   3.0mph /  4.8km/h 60% 0.00in /  0mm
14:58 90.2 °F /  32.3 °C 74.9 °F /  23.8 °C 29.85in /  1010.7hPa WNW 4.0mph /  6.4km/h 9.0mph /  14.5km/h 61% 0.00in /  0mm
15:03 89.6 °F /  32 °C 74.4 °F /  23.6 °C 29.85in /  1010.7hPa WNW 3.0mph /  4.8km/h 4.0mph /  6.4km/h 61% 0.00in /  0mm
15:08 89.3 °F /  31.8 °C 75.5 °F /  24.2 °C 29.85in /  1010.7hPa WNW 1.0mph /  1.6km/h 4.0mph /  6.4km/h 64% 0.00in /  0mm
15:13 89.7 °F /  32.1 °C 75.4 °F /  24.1 °C 29.85in /  1010.7hPa NW 2.0mph /  3.2km/h 4.0mph /  6.4km/h 63% 0.00in /  0mm
15:18 89.9 °F /  32.2 °C 74.7 °F /  23.7 °C 29.84in /  1010.4hPa Calm   1.0mph /  1.6km/h 61% 0.00in /  0mm
15:23 90.2 °F /  32.3 °C 74.4 °F /  23.6 °C 29.84in /  1010.4hPa NNW 2.0mph /  3.2km/h 6.0mph /  9.7km/h 60% 0.00in /  0mm
15:28 90.3 °F /  32.4 °C 74.0 °F /  23.3 °C 29.84in /  1010.4hPa WSW 1.0mph /  1.6km/h 7.0mph /  11.3km/h 59% 0.00in /  0mm
15:33 90.3 °F /  32.4 °C 75.0 °F /  23.9 °C 29.84in /  1010.4hPa West 4.0mph /  6.4km/h 7.0mph /  11.3km/h 61% 0.00in /  0mm
15:38 90.0 °F /  32.2 °C 73.8 °F /  23.2 °C 29.83in /  1010hPa Calm   4.0mph /  6.4km/h 59% 0.00in /  0mm
15:43 90.9 °F /  32.7 °C 75.6 °F /  24.2 °C 29.83in /  1010hPa NNW 3.0mph /  4.8km/h 5.0mph /  8km/h 61% 0.00in /  0mm
15:48 90.5 °F /  32.5 °C 74.7 °F /  23.7 °C 29.83in /  1010hPa West 4.0mph /  6.4km/h 8.0mph /  12.9km/h 60% 0.00in /  0mm
15:53 90.5 °F /  32.5 °C 74.7 °F /  23.7 °C 29.83in /  1010hPa NNW 3.0mph /  4.8km/h 7.0mph /  11.3km/h 60% 0.00in /  0mm
15:58 90.8 °F /  32.7 °C 75.5 °F /  24.2 °C 29.83in /  1010hPa Calm   3.0mph /  4.8km/h 61% 0.00in /  0mm
16:03 91.5 °F /  33.1 °C 74.1 °F /  23.4 °C 29.83in /  1010hPa NW 1.0mph /  1.6km/h 4.0mph /  6.4km/h 57% 0.00in /  0mm
16:08 91.2 °F /  32.9 °C 73.8 °F /  23.2 °C 29.83in /  1010hPa NW 7.0mph /  11.3km/h 7.0mph /  11.3km/h 57% 0.00in /  0mm
16:13 91.2 °F /  32.9 °C 74.9 °F /  23.8 °C 29.83in /  1010hPa West 7.0mph /  11.3km/h 8.0mph /  12.9km/h 59% 0.00in /  0mm
16:18 90.9 °F /  32.7 °C 74.6 °F /  23.7 °C 29.82in /  1009.7hPa NW 3.0mph /  4.8km/h 8.0mph /  12.9km/h 59% 0.00in /  0mm
16:23 90.9 °F /  32.7 °C 74.6 °F /  23.7 °C 29.83in /  1010hPa WNW 4.0mph /  6.4km/h 6.0mph /  9.7km/h 59% 0.00in /  0mm
16:28 91.0 °F /  32.8 °C 73.1 °F /  22.8 °C 29.82in /  1009.7hPa NW 2.0mph /  3.2km/h 6.0mph /  9.7km/h 56% 0.00in /  0mm
16:33 91.0 °F /  32.8 °C 74.2 °F /  23.4 °C 29.82in /  1009.7hPa NW 5.0mph /  8km/h 7.0mph /  11.3km/h 58% 0.00in /  0mm
16:38 91.1 °F /  32.8 °C 73.2 °F /  22.9 °C 29.82in /  1009.7hPa Calm   6.0mph /  9.7km/h 56% 0.00in /  0mm
16:43 91.3 °F /  32.9 °C 73.9 °F /  23.3 °C 29.82in /  1009.7hPa NW 2.0mph /  3.2km/h 5.0mph /  8km/h 57% 0.00in /  0mm
16:48 91.2 °F /  32.9 °C 74.4 °F /  23.6 °C 29.82in /  1009.7hPa NW 3.0mph /  4.8km/h 5.0mph /  8km/h 58% 0.00in /  0mm
16:53 91.3 °F /  32.9 °C 74.5 °F /  23.6 °C 29.81in /  1009.4hPa NW 1.0mph /  1.6km/h 3.0mph /  4.8km/h 58% 0.00in /  0mm
16:58 91.4 °F /  33 °C 74.0 °F /  23.3 °C 29.81in /  1009.4hPa WNW 3.0mph /  4.8km/h 4.0mph /  6.4km/h 57% 0.00in /  0mm
17:03 91.4 °F /  33 °C 73.0 °F /  22.8 °C 29.81in /  1009.4hPa West 2.0mph /  3.2km/h 6.0mph /  9.7km/h 55% 0.00in /  0mm
17:08 91.4 °F /  33 °C 74.0 °F /  23.3 °C 29.81in /  1009.4hPa WSW 3.0mph /  4.8km/h 5.0mph /  8km/h 57% 0.00in /  0mm
17:13 91.6 °F /  33.1 °C 75.2 °F /  24 °C 29.81in /  1009.4hPa NNW 4.0mph /  6.4km/h 6.0mph /  9.7km/h 59% 0.00in /  0mm
17:18 91.3 °F /  32.9 °C 74.5 °F /  23.6 °C 29.81in /  1009.4hPa NW 7.0mph /  11.3km/h 7.0mph /  11.3km/h 58% 0.00in /  0mm
17:23 91.2 °F /  32.9 °C 74.9 °F /  23.8 °C 29.81in /  1009.4hPa WNW 4.0mph /  6.4km/h 6.0mph /  9.7km/h 59% 0.00in /  0mm
17:28 91.1 °F /  32.8 °C 73.8 °F /  23.2 °C 29.81in /  1009.4hPa West 3.0mph /  4.8km/h 4.0mph /  6.4km/h 57% 0.00in /  0mm
17:33 91.3 °F /  32.9 °C 75.0 °F /  23.9 °C 29.81in /  1009.4hPa NW 4.0mph /  6.4km/h 5.0mph /  8km/h 59% 0.00in /  0mm
17:38 91.5 °F /  33.1 °C 74.1 °F /  23.4 °C 29.81in /  1009.4hPa NNW 5.0mph /  8km/h 9.0mph /  14.5km/h 57% 0.00in /  0mm
17:43 91.4 °F /  33 °C 74.0 °F /  23.3 °C 29.81in /  1009.4hPa WNW 4.0mph /  6.4km/h 8.0mph /  12.9km/h 57% 0.00in /  0mm
17:48 91.1 °F /  32.8 °C 75.3 °F /  24.1 °C 29.80in /  1009hPa WNW 3.0mph /  4.8km/h 6.0mph /  9.7km/h 60% 0.00in /  0mm
17:53 91.0 °F /  32.8 °C 75.2 °F /  24 °C 29.80in /  1009hPa WNW 3.0mph /  4.8km/h 4.0mph /  6.4km/h 60% 0.00in /  0mm
17:58 91.1 °F /  32.8 °C 75.3 °F /  24.1 °C 29.80in /  1009hPa WNW 2.0mph /  3.2km/h 5.0mph /  8km/h 60% 0.00in /  0mm
18:03 91.3 °F /  32.9 °C 75.5 °F /  24.2 °C 29.81in /  1009.4hPa NW 3.0mph /  4.8km/h 5.0mph /  8km/h 60% 0.00in /  0mm
18:08 91.5 °F /  33.1 °C 75.2 °F /  24 °C 29.80in /  1009hPa NNW 3.0mph /  4.8km/h 5.0mph /  8km/h 59% 0.00in /  0mm
18:13 91.6 °F /  33.1 °C 75.2 °F /  24 °C 29.80in /  1009hPa WNW 2.0mph /  3.2km/h 4.0mph /  6.4km/h 59% 0.00in /  0mm
18:19 91.5 °F /  33.1 °C 74.7 °F /  23.7 °C 29.80in /  1009hPa WNW 4.0mph /  6.4km/h 5.0mph /  8km/h 58% 0.00in /  0mm
18:24 91.3 °F /  32.9 °C 75.0 °F /  23.9 °C 29.80in /  1009hPa NW 4.0mph /  6.4km/h 5.0mph /  8km/h 59% 0.00in /  0mm
18:29 91.3 °F /  32.9 °C 76.0 °F /  24.4 °C 29.80in /  1009hPa WNW 6.0mph /  9.7km/h 6.0mph /  9.7km/h 61% 0.00in /  0mm
18:34 91.3 °F /  32.9 °C 75.0 °F /  23.9 °C 29.80in /  1009hPa NW 4.0mph /  6.4km/h 4.0mph /  6.4km/h 59% 0.00in /  0mm
18:39 91.3 °F /  32.9 °C 75.5 °F /  24.2 °C 29.80in /  1009hPa NW 2.0mph /  3.2km/h 4.0mph /  6.4km/h 60% 0.00in /  0mm
18:44 91.4 °F /  33 °C 75.6 °F /  24.2 °C 29.80in /  1009hPa NNW 2.0mph /  3.2km/h 4.0mph /  6.4km/h 60% 0.00in /  0mm
18:49 91.4 °F /  33 °C 76.6 °F /  24.8 °C 29.80in /  1009hPa West 3.0mph /  4.8km/h 4.0mph /  6.4km/h 62% 0.00in /  0mm
18:54 91.4 °F /  33 °C 75.6 °F /  24.2 °C 29.81in /  1009.4hPa West 2.0mph /  3.2km/h 4.0mph /  6.4km/h 60% 0.00in /  0mm
18:59 91.4 °F /  33 °C 75.6 °F /  24.2 °C 29.81in /  1009.4hPa West 2.0mph /  3.2km/h 5.0mph /  8km/h 60% 0.00in /  0mm
19:04 91.4 °F /  33 °C 76.6 °F /  24.8 °C 29.81in /  1009.4hPa WSW 3.0mph /  4.8km/h 4.0mph /  6.4km/h 62% 0.00in /  0mm
19:09 91.2 °F /  32.9 °C 75.9 °F /  24.4 °C 29.81in /  1009.4hPa WNW 2.0mph /  3.2km/h 4.0mph /  6.4km/h 61% 0.00in /  0mm
19:14 90.7 °F /  32.6 °C 76.4 °F /  24.7 °C 29.81in /  1009.4hPa West 1.0mph /  1.6km/h 2.0mph /  3.2km/h 63% 0.00in /  0mm
19:19 90.4 °F /  32.4 °C 75.6 °F /  24.2 °C 29.81in /  1009.4hPa West 1.0mph /  1.6km/h 2.0mph /  3.2km/h 62% 0.00in /  0mm
19:24 90.8 °F /  32.7 °C 76.0 °F /  24.4 °C 29.81in /  1009.4hPa WSW 3.0mph /  4.8km/h 4.0mph /  6.4km/h 62% 0.00in /  0mm
19:29 90.8 °F /  32.7 °C 76.9 °F /  24.9 °C 29.81in /  1009.4hPa SW 1.0mph /  1.6km/h 1.0mph /  1.6km/h 64% 0.00in /  0mm
19:34 90.3 °F /  32.4 °C 76.5 °F /  24.7 °C 29.81in /  1009.4hPa SW 2.0mph /  3.2km/h 2.0mph /  3.2km/h 64% 0.00in /  0mm
19:39 89.8 °F /  32.1 °C 76.0 °F /  24.4 °C 29.81in /  1009.4hPa WSW 1.0mph /  1.6km/h 3.0mph /  4.8km/h 64% 0.00in /  0mm
19:44 89.3 °F /  31.8 °C 76.0 °F /  24.4 °C 29.81in /  1009.4hPa Calm   2.0mph /  3.2km/h 65% 0.00in /  0mm
19:49 89.2 °F /  31.8 °C 75.9 °F /  24.4 °C 29.82in /  1009.7hPa Calm     65% 0.00in /  0mm
19:54 89.0 °F /  31.7 °C 76.6 °F /  24.8 °C 29.81in /  1009.4hPa Calm   1.0mph /  1.6km/h 67% 0.00in /  0mm
19:59 88.6 °F /  31.4 °C 75.8 °F /  24.3 °C 29.82in /  1009.7hPa Calm   1.0mph /  1.6km/h 66% 0.00in /  0mm
20:04 88.5 °F /  31.4 °C 75.2 °F /  24 °C 29.82in /  1009.7hPa SSW 1.0mph /  1.6km/h 1.0mph /  1.6km/h 65% 0.00in /  0mm
20:09 88.4 °F /  31.3 °C 76.1 °F /  24.5 °C 29.82in /  1009.7hPa Calm   1.0mph /  1.6km/h 67% 0.00in /  0mm
20:14 88.3 °F /  31.3 °C 78.6 °F /  25.9 °C 29.82in /  1009.7hPa South 1.0mph /  1.6km/h 1.0mph /  1.6km/h 73% 0.00in /  0mm
20:19 87.3 °F /  30.7 °C 78.0 °F /  25.6 °C 29.82in /  1009.7hPa Calm   1.0mph /  1.6km/h 74% 0.00in /  0mm
20:24 86.8 °F /  30.4 °C 77.5 °F /  25.3 °C 29.81in /  1009.4hPa Calm   1.0mph /  1.6km/h 74% 0.00in /  0mm
20:29 86.5 °F /  30.3 °C 77.2 °F /  25.1 °C 29.82in /  1009.7hPa NE 1.0mph /  1.6km/h 2.0mph /  3.2km/h 74% 0.00in /  0mm
20:34 85.9 °F /  29.9 °C 76.7 °F /  24.8 °C 29.82in /  1009.7hPa NE 1.0mph /  1.6km/h 2.0mph /  3.2km/h 74% 0.00in /  0mm
20:39 85.7 °F /  29.8 °C 76.1 °F /  24.5 °C 29.82in /  1009.7hPa Calm   1.0mph /  1.6km/h 73% 0.00in /  0mm
20:44 85.7 °F /  29.8 °C 75.6 °F /  24.2 °C 29.82in /  1009.7hPa Calm   1.0mph /  1.6km/h 72% 0.00in /  0mm
20:50 85.9 °F /  29.9 °C 75.4 °F /  24.1 °C 29.82in /  1009.7hPa Calm     71% 0.00in /  0mm
20:55 85.6 °F /  29.8 °C 76.4 °F /  24.7 °C 29.82in /  1009.7hPa NE 1.0mph /  1.6km/h 2.0mph /  3.2km/h 74% 0.00in /  0mm
21:00 84.7 °F /  29.3 °C 75.5 °F /  24.2 °C 29.83in /  1010hPa NE 1.0mph /  1.6km/h 2.0mph /  3.2km/h 74% 0.00in /  0mm
21:05 84.5 °F /  29.2 °C 75.7 °F /  24.3 °C 29.83in /  1010hPa Calm   1.0mph /  1.6km/h 75% 0.00in /  0mm
21:10 85.1 °F /  29.5 °C 73.4 °F /  23 °C 29.83in /  1010hPa NNW 1.0mph /  1.6km/h 4.0mph /  6.4km/h 68% 0.00in /  0mm
21:15 85.7 °F /  29.8 °C 74.4 °F /  23.6 °C 29.83in /  1010hPa NE 1.0mph /  1.6km/h 2.0mph /  3.2km/h 69% 0.00in /  0mm
21:20 85.2 °F /  29.6 °C 74.3 °F /  23.5 °C 29.83in /  1010hPa NNE 1.0mph /  1.6km/h 2.0mph /  3.2km/h 70% 0.00in /  0mm
21:25 84.8 °F /  29.3 °C 74.4 °F /  23.6 °C 29.83in /  1010hPa Calm     71% 0.00in /  0mm
21:30 84.2 °F /  29 °C 74.6 °F /  23.7 °C 29.83in /  1010hPa Calm     73% 0.00in /  0mm
21:35 83.9 °F /  28.8 °C 74.3 °F /  23.5 °C 29.83in /  1010hPa Calm     73% 0.00in /  0mm
21:40 83.7 °F /  28.7 °C 74.1 °F /  23.4 °C 29.83in /  1010hPa Calm   1.0mph /  1.6km/h 73% 0.00in /  0mm
21:45 83.6 °F /  28.7 °C 74.0 °F /  23.3 °C 29.84in /  1010.4hPa Calm   1.0mph /  1.6km/h 73% 0.00in /  0mm
21:50 83.3 °F /  28.5 °C 74.2 °F /  23.4 °C 29.84in /  1010.4hPa Calm     74% 0.00in /  0mm
21:55 83.3 °F /  28.5 °C 73.8 °F /  23.2 °C 29.84in /  1010.4hPa Calm   1.0mph /  1.6km/h 73% 0.00in /  0mm
22:00 83.3 °F /  28.5 °C 74.2 °F /  23.4 °C 29.84in /  1010.4hPa Calm   1.0mph /  1.6km/h 74% 0.00in /  0mm
22:05 82.8 °F /  28.2 °C 74.1 °F /  23.4 °C 29.84in /  1010.4hPa Calm     75% 0.00in /  0mm
22:10 82.1 °F /  27.8 °C 74.2 °F /  23.4 °C 29.84in /  1010.4hPa Calm     77% 0.00in /  0mm
22:15 81.8 °F /  27.7 °C 73.9 °F /  23.3 °C 29.84in /  1010.4hPa Calm     77% 0.00in /  0mm
22:20 82.0 °F /  27.8 °C 74.1 °F /  23.4 °C 29.85in /  1010.7hPa Calm     77% 0.00in /  0mm
22:25 81.8 °F /  27.7 °C 73.9 °F /  23.3 °C 29.85in /  1010.7hPa Calm     77% 0.00in /  0mm
22:30 81.7 °F /  27.6 °C 73.4 °F /  23 °C 29.85in /  1010.7hPa Calm     76% 0.00in /  0mm
22:35 82.0 °F /  27.8 °C 73.3 °F /  22.9 °C 29.85in /  1010.7hPa Calm   1.0mph /  1.6km/h 75% 0.00in /  0mm
22:40 82.2 °F /  27.9 °C 73.5 °F /  23.1 °C 29.85in /  1010.7hPa Calm     75% 0.00in /  0mm
22:45 82.3 °F /  27.9 °C 73.2 °F /  22.9 °C 29.85in /  1010.7hPa Calm   1.0mph /  1.6km/h 74% 0.00in /  0mm
22:50 82.4 °F /  28 °C 73.3 °F /  22.9 °C 29.85in /  1010.7hPa Calm     74% 0.00in /  0mm
22:55 82.1 °F /  27.8 °C 73.4 °F /  23 °C 29.85in /  1010.7hPa Calm     75% 0.00in /  0mm
23:00 81.4 °F /  27.4 °C 73.5 °F /  23.1 °C 29.85in /  1010.7hPa Calm     77% 0.00in /  0mm
23:05 80.9 °F /  27.2 °C 73.4 °F /  23 °C 29.85in /  1010.7hPa Calm     78% 0.00in /  0mm
23:10 80.8 °F /  27.1 °C 73.3 °F /  22.9 °C 29.85in /  1010.7hPa Calm     78% 0.00in /  0mm
23:15 80.7 °F /  27.1 °C 73.2 °F /  22.9 °C 29.85in /  1010.7hPa Calm     78% 0.00in /  0mm
23:20 79.8 °F /  26.6 °C 73.4 °F /  23 °C 29.86in /  1011.1hPa Calm   1.0mph /  1.6km/h 81% 0.00in /  0mm
23:25 79.2 °F /  26.2 °C 73.2 °F /  22.9 °C 29.86in /  1011.1hPa Calm     82% 0.00in /  0mm
23:30 79.1 °F /  26.2 °C 73.1 °F /  22.8 °C 29.86in /  1011.1hPa Calm     82% 0.00in /  0mm
23:35 79.2 °F /  26.2 °C 73.2 °F /  22.9 °C 29.85in /  1010.7hPa Calm     82% 0.00in /  0mm
23:40 78.5 °F /  25.8 °C 73.3 °F /  22.9 °C 29.85in /  1010.7hPa Calm     84% 0.00in /  0mm
23:45 78.4 °F /  25.8 °C 73.2 °F /  22.9 °C 29.85in /  1010.7hPa NNE 1.0mph /  1.6km/h 2.0mph /  3.2km/h 84% 0.00in /  0mm
23:50 78.3 °F /  25.7 °C 73.4 °F /  23 °C 29.85in /  1010.7hPa Calm     85% 0.00in /  0mm
23:55 78.0 °F /  25.6 °C 73.1 °F /  22.8 °C 29.85in /  1010.7hPa Calm     85% 0.00in /  0mm
Compliments of Weather Underground